• Join FlightAware (Why Join?)
  • Login
  • US Flag 
03:06PM EDT


 

Airport Tracker/Info


-or-


 

Live Flight TrackerFlight Track Log ✈ EJA831 ✈ 22-Sep-2013 ✈ KOAK - KEUG

Flight Track Log - Related Links

Times and Time Zones

All times are in EDT time to prevent confusion due to time zone crossing. See the EJA831 flight status page for this flight to view local times or setup timezone preferences in your user account.

Time Position Orientation Groundspeed Altitude Reporting Facility
EDT Latitude Longitude Course Direction KTS MPH feet Rate Location/Type
07:23PM 37.7167 -122.2500 314° West 174 200 1,400  Level Northern Cal TRACON
07:24PM 37.7667 -122.3167 314° West 254 292 4,000 1,560 Climbing Northern Cal TRACON
07:25PM 37.8167 -122.3167 360° North 262 302 4,600 1,020 Climbing Northern Cal TRACON
07:26PM 37.8167 -122.2333 90° East 236 272 6,100 2,700 Climbing Northern Cal TRACON
07:27PM 37.8333 -122.1500 76° East 268 308 10,000 2,820 Climbing Northern Cal TRACON
07:29PM 37.9142 -122.1189 17° North 265 305 13,000 2,220 Climbing Oakland Center
07:30PM 37.9911 -122.1228 358° North 275 316 15,500 1,860 Climbing Oakland Center
07:31PM 38.0978 -122.1283 358° North 309 356 16,900 1,380 Climbing Oakland Center
07:32PM 38.1942 -122.1325 358° North 333 383 18,400 1,320 Climbing Oakland Center
07:33PM 38.2889 -122.1381 357° North 342 394 19,700 1,560 Climbing Oakland Center
07:34PM 38.3828 -122.1433 357° North 342 394 21,600 1,920 Climbing Oakland Center
07:35PM 38.4708 -122.1481 358° North 325 374 23,700 1,620 Climbing Oakland Center
07:36PM 38.5578 -122.1578 355° North 316 364 25,000 1,380 Climbing Oakland Center
07:37PM 38.6672 -122.1775 352° North 330 380 26,600 1,320 Climbing Oakland Center
07:38PM 38.7461 -122.1917 352° North 336 387 27,800 1,140 Climbing Oakland Center
07:39PM 38.8603 -122.2122 352° North 343 395 29,000 960 Climbing Oakland Center
07:40PM 38.9603 -122.2294 352° North 359 413 29,800 900 Climbing Oakland Center
07:41PM 39.0603 -122.2483 352° North 361 415 30,900 960 Climbing Oakland Center
07:42PM 39.1603 -122.2658 352° North 361 415 31,900 480 Climbing Oakland Center
07:43PM 39.2608 -122.2842 352° North 364 419 32,000  Climbing Oakland Center
07:44PM 39.3661 -122.3019 353° North 379 436 32,000  Level Oakland Center
07:45PM 39.4864 -122.3236 352° North 385 443 32,000  Level Oakland Center
07:46PM 39.5933 -122.3444 351° North 387 445 32,000  Level Oakland Center
07:47PM 39.7011 -122.3622 353° North 390 449 32,000  Level Oakland Center
07:48PM 39.8081 -122.3828 352° North 388 447 32,000  Level Oakland Center
07:49PM 39.9158 -122.4025 352° North 390 449 32,000  Level Oakland Center
07:50PM 40.0228 -122.4236 351° North 386 444 32,000  Level Oakland Center
07:51PM 40.1347 -122.4464 351° North 395 455 32,000  Level Oakland Center
07:52PM 40.2453 -122.4642 353° North 391 450 32,000  Level Oakland Center
07:53PM 40.3539 -122.4833 352° North 393 452 32,000  Level Oakland Center
07:54PM 40.4628 -122.5036 352° North 394 453 32,000  Level Oakland Center
07:55PM 40.5931 -122.5269 352° North 394 453 32,000  Level Oakland Center
07:56PM 40.7008 -122.5464 352° North 392 451 32,000  Level Oakland Center
07:57PM 40.8086 -122.5678 351° North 391 450 32,000  Level Oakland Center
07:58PM 40.9164 -122.5867 352° North 391 450 32,000  Level Oakland Center
07:59PM 41.0228 -122.6069 352° North 388 447 32,000  Level Oakland Center
08:00PM 41.1283 -122.6264 352° North 384 442 32,000  Level Oakland Center
08:01PM 41.2344 -122.6472 352° North 384 442 32,000  Level Oakland Center
08:02PM 41.3511 -122.6681 352° North 387 445 32,000  Level Oakland Center
08:03PM 41.4547 -122.6894 351° North 380 437 32,000  Level Oakland Center
08:04PM 41.5567 -122.7081 352° North 372 428 32,000  Level Oakland Center
08:06PM 41.6608 -122.7278 352° North 375 432 32,000  Level Oakland Center
08:07PM 41.7639 -122.7486 351° North 376 433 32,000  Level Oakland Center
08:08PM 41.8675 -122.7692 352° North 376 433 32,000  Level Oakland Center
08:09PM 41.9889 -122.7933 352° North 367 422 32,000  Level Oakland Center
08:10PM 42.0897 -122.8119 352° North 366 421 32,000  Level Oakland Center
08:11PM 42.1894 -122.8311 352° North 363 418 32,000  Level Oakland Center
08:12PM 42.2889 -122.8519 351° North 361 415 32,000  Level Oakland Center
08:13PM 42.3900 -122.8697 353° North 361 415 32,000 -120 Level Seattle Center
08:14PM 42.4903 -122.8892 352° North 362 417 31,800 -1,080 Descending Seattle Center
08:15PM 42.5925 -122.9089 352° North 369 425 29,900 -2,460 Descending Seattle Center
08:16PM 42.7139 -122.9331 352° North 369 425 26,900 -2,460 Descending Seattle Center
08:17PM 42.7958 -122.9497 352° North 359 413 24,900 -1,440 Descending Seattle Center
08:18PM 42.8933 -122.9694 352° North 352 405 24,000 -1,200 Descending Seattle Center
08:19PM 43.0097 -122.9931 352° North 351 404 22,500 -1,740 Descending Seattle Center
08:20PM 43.1072 -123.0128 352° North 354 407 20,500 -2,340 Descending Seattle Center
08:21PM 43.2061 -123.0319 352° North 358 412 17,800 -2,760 Descending Seattle Center
08:22PM 43.2992 -123.0528 351° North 340 391 15,000 -2,760 Descending Seattle Center
08:23PM 43.3922 -123.0722 351° North 337 388 12,300 -2,400 Descending Seattle Center
08:24PM 43.4817 -123.0897 352° North 325 374 10,200 -1,380 Descending Seattle Center
08:25PM 43.5714 -123.1083 351° North 325 374 9,600 -1,140 Descending Seattle Center
08:26PM 43.6519 -123.1247 352° North 289 333 7,900 -1,800 Descending Seattle Center
08:27PM 43.7300 -123.1297 357° North 280 322 6,000 -1,440 Descending Seattle Center
08:28PM 43.8061 -123.1275 North 273 314 5,000 -540 Descending Seattle Center
08:29PM 43.8819 -123.1181 North 273 314 5,000  Level Seattle Center
08:30PM 43.9619 -123.1075 North 288 331 5,000  Level Seattle Center
08:31PM 44.0406 -123.0958 North 286 329 5,000  Level Seattle Center
08:32PM 44.1319 -123.0844 North 287 330 5,000 -120 Level Seattle Center
08:33PM 44.2083 -123.0772 North 273 314 4,800 -540 Descending Seattle Center
08:34PM 44.2808 -123.0728 North 247 284 4,000 -780 Descending Seattle Center
08:35PM 44.3019 -123.1200 302° West 168 193 3,300 -540 Descending Seattle Center
08:36PM 44.3011 -123.1828 269° West 160 184 3,000 -600 Descending Seattle Center
08:37PM 44.2583 -123.2125 206° Southwest 174 200 2,200 -600 Descending Seattle Center
08:38PM 44.2097 -123.2206 187° South 177 204 1,800 -600 Descending Seattle Center
08:39PM 44.1711 -123.2194 179° South 133 153 1,100 -660 Descending Seattle Center
08:40PM 44.1403 -123.2192 180° South 110 127 500 -420 Descending Seattle Center
08:41PM 44.1206 -123.2178 177° South 87 100 300 -240 Descending Seattle Center